Time;durP1;ratioP1;P1;durP2;ratioP2;P2;SDS_P1;SDS_P2;PMS_P1;PMS_P2;Temp;Humidity;BMP_temperature;BMP_pressure;BME280_temperature;BME280_humidity;BME280_pressure;Samples;Min_cycle;Max_cycle;Signal;HPM_P1;HPM_P2
2021/12/29 00:00:28;;;;;;;15.63;9.77;;;;;;;2.27;64.12;100400.66;6025289;29;20192;-76
2021/12/29 00:03:33;;;;;;;17.83;9.33;;;;;;;2.40;63.82;100396.34;6025048;29;20479;-76
2021/12/29 00:06:39;;;;;;;17.63;9.47;;;;;;;2.53;63.32;100404.53;6024763;29;20493;-76
2021/12/29 00:09:45;;;;;;;18.00;9.37;;;;;;;2.39;63.47;100398.25;6024606;29;20404;-76
2021/12/29 00:12:52;;;;;;;16.87;9.17;;;;;;;2.54;63.57;100400.81;6025588;29;20283;-76
2021/12/29 00:15:58;;;;;;;22.33;9.17;;;;;;;2.58;63.39;100392.06;6026232;29;20200;-76
2021/12/29 00:19:02;;;;;;;17.50;9.70;;;;;;;2.32;63.72;100387.34;6024572;29;20196;-76
2021/12/29 00:22:10;;;;;;;19.47;9.80;;;;;;;2.53;63.92;100393.69;6025621;29;20244;-76
2021/12/29 00:25:15;;;;;;;16.37;9.70;;;;;;;2.19;64.25;100387.28;6025720;29;20195;-76
2021/12/29 00:28:20;;;;;;;19.63;9.30;;;;;;;2.08;65.21;100390.56;6025796;29;20265;-76
2021/12/29 00:31:24;;;;;;;21.93;9.87;;;;;;;2.27;64.57;100395.25;6024346;29;20532;-76
2021/12/29 00:34:47;;;;;;;21.20;10.23;;;;;;;2.53;63.64;100399.97;6025546;29;20198;-76
2021/12/29 00:38:16;;;;;;;19.50;9.47;;;;;;;2.18;65.35;100396.44;6025241;29;20207;-76
2021/12/29 00:41:55;;;;;;;19.83;9.47;;;;;;;2.36;65.05;100397.78;6024122;29;20510;-76
2021/12/29 00:45:19;;;;;;;18.47;9.87;;;;;;;2.19;65.60;100392.69;6025061;29;20273;-76
2021/12/29 00:48:34;;;;;;;19.87;10.50;;;;;;;2.18;66.01;100404.56;6024536;29;20201;-76
2021/12/29 00:51:39;;;;;;;24.40;11.10;;;;;;;2.38;65.12;100412.81;6025400;29;20353;-76
2021/12/29 00:54:45;;;;;;;22.47;10.53;;;;;;;2.20;66.49;100407.91;6025271;29;20247;-76
2021/12/29 00:57:51;;;;;;;24.17;11.27;;;;;;;1.90;66.88;100397.50;6024105;29;20198;-76
2021/12/29 01:00:55;;;;;;;22.57;10.57;;;;;;;2.06;67.06;100403.44;6024604;29;20262;-76
2021/12/29 01:04:00;;;;;;;21.10;10.23;;;;;;;2.68;65.18;100397.94;6026918;29;20196;-76
2021/12/29 01:07:05;;;;;;;22.37;10.13;;;;;;;3.02;63.36;100398.88;6028735;29;20474;-76
2021/12/29 01:10:14;;;;;;;27.30;11.33;;;;;;;3.05;63.43;100393.91;6029225;29;20401;-76
2021/12/29 01:13:28;;;;;;;15.90;10.07;;;;;;;2.51;65.46;100393.06;6029390;29;20258;-76
2021/12/29 01:16:39;;;;;;;22.43;10.83;;;;;;;3.07;63.74;100402.66;6028502;29;20380;-77
2021/12/29 01:19:43;;;;;;;25.13;11.63;;;;;;;3.03;64.09;100404.13;6029430;29;20192;-76
2021/12/29 01:22:47;;;;;;;25.53;11.97;;;;;;;3.10;63.84;100402.25;6029342;29;20196;-77
2021/12/29 01:25:53;;;;;;;25.83;12.30;;;;;;;2.97;64.45;100415.78;6028556;29;20192;-76
2021/12/29 01:28:58;;;;;;;26.60;12.67;;;;;;;2.69;65.24;100404.19;6029263;29;20192;-76
2021/12/29 01:32:02;;;;;;;30.27;12.63;;;;;;;2.81;65.02;100402.56;6028602;29;20225;-76
2021/12/29 01:35:10;;;;;;;26.20;12.13;;;;;;;2.97;64.86;100409.50;6028064;29;20512;-76
2021/12/29 01:38:17;;;;;;;25.53;11.90;;;;;;;3.16;63.94;100406.88;6029010;29;20257;-76
2021/12/29 01:41:22;;;;;;;23.57;12.13;;;;;;;3.15;64.29;100407.91;6028393;29;20220;-76
2021/12/29 01:44:29;;;;;;;30.27;12.27;;;;;;;2.70;65.44;100405.88;6028954;29;20202;-76
2021/12/29 01:47:33;;;;;;;27.73;12.53;;;;;;;2.77;65.64;100406.75;6027813;29;20200;-76
2021/12/29 01:50:39;;;;;;;27.97;11.83;;;;;;;2.88;65.92;100403.47;6029035;29;20223;-76
2021/12/29 01:53:49;;;;;;;27.50;12.20;;;;;;;3.02;65.05;100405.16;6027725;29;20256;-76
2021/12/29 01:56:57;;;;;;;29.30;12.10;;;;;;;3.25;64.53;100405.63;6028625;29;20218;-76
2021/12/29 02:00:04;;;;;;;30.77;12.73;;;;;;;3.13;64.73;100412.69;6028839;29;20195;-77
2021/12/29 02:03:17;;;;;;;30.27;14.13;;;;;;;2.94;65.69;100413.47;6028440;29;20279;-76
2021/12/29 02:06:21;;;;;;;27.93;12.50;;;;;;;2.83;65.90;100427.63;6028059;29;20237;-75
2021/12/29 02:09:25;;;;;;;33.60;13.03;;;;;;;2.53;66.69;100421.63;6028737;29;20256;-75
2021/12/29 02:12:32;;;;;;;25.37;12.13;;;;;;;2.22;68.25;100422.09;6028674;29;20199;-75
2021/12/29 02:15:36;;;;;;;27.07;11.67;;;;;;;2.47;67.42;100433.28;6027165;29;20261;-75
2021/12/29 02:18:41;;;;;;;27.77;13.83;;;;;;;3.07;65.71;100424.38;6027453;29;20192;-75
2021/12/29 02:21:55;;;;;;;28.70;13.67;;;;;;;2.83;65.88;100427.63;6027125;29;20259;-75
2021/12/29 02:25:19;;;;;;;29.57;12.93;;;;;;;2.86;66.34;100432.63;6028066;29;20196;-75
2021/12/29 02:28:26;;;;;;;31.37;13.03;;;;;;;2.81;66.35;100429.69;6026985;29;20383;-75
2021/12/29 02:31:31;;;;;;;32.17;13.53;;;;;;;2.41;67.43;100427.84;6028254;29;20198;-75
2021/12/29 02:34:35;;;;;;;29.07;13.87;;;;;;;2.56;67.42;100432.09;6027742;29;20250;-75
2021/12/29 02:37:41;;;;;;;33.50;15.10;;;;;;;2.55;67.31;100435.00;6027166;29;20195;-75
2021/12/29 02:40:45;;;;;;;28.33;13.23;;;;;;;2.66;67.00;100431.72;6028437;29;20263;-75
2021/12/29 02:43:57;;;;;;;23.03;12.00;;;;;;;3.03;65.57;100444.81;6026897;29;20499;-75
2021/12/29 02:47:01;;;;;;;30.33;12.80;;;;;;;3.00;65.11;100447.94;6026688;29;20484;-76
2021/12/29 02:50:08;;;;;;;30.10;13.40;;;;;;;2.77;66.48;100444.69;6027628;29;20199;-75
2021/12/29 02:53:16;;;;;;;31.10;13.60;;;;;;;2.87;66.38;100445.16;6027468;29;20202;-75
2021/12/29 02:56:22;;;;;;;32.37;14.33;;;;;;;2.82;66.42;100447.63;6027327;29;20192;-75
2021/12/29 02:59:26;;;;;;;31.03;13.33;;;;;;;2.65;66.78;100451.75;6026250;29;20381;-75
2021/12/29 03:02:30;;;;;;;34.47;12.93;;;;;;;2.67;66.79;100438.81;6026860;29;20294;-75
2021/12/29 03:05:35;;;;;;;26.03;12.70;;;;;;;2.65;66.96;100440.91;6027064;29;20218;-75
2021/12/29 03:08:42;;;;;;;30.07;12.67;;;;;;;2.83;66.17;100444.72;6027434;29;20208;-75
2021/12/29 03:11:47;;;;;;;34.60;13.03;;;;;;;3.03;65.49;100439.38;6026890;29;20195;-75
2021/12/29 03:14:53;;;;;;;28.43;12.70;;;;;;;2.88;65.78;100441.41;6025776;29;20251;-75
2021/12/29 03:17:58;;;;;;;29.93;12.93;;;;;;;3.08;65.34;100439.59;6027072;29;20195;-75
2021/12/29 03:21:04;;;;;;;25.47;12.30;;;;;;;2.67;66.69;100444.25;6026749;29;20193;-75
2021/12/29 03:24:10;;;;;;;25.70;12.67;;;;;;;2.67;66.71;100444.25;6026123;29;20206;-75
2021/12/29 03:27:15;;;;;;;28.97;12.50;;;;;;;2.80;66.39;100442.44;6025543;29;20198;-75
2021/12/29 03:30:19;;;;;;;30.27;12.70;;;;;;;2.71;66.37;100445.50;6025469;29;20208;-75
2021/12/29 03:33:28;;;;;;;34.00;14.10;;;;;;;2.72;66.42;100442.59;6025537;29;20198;-75
2021/12/29 03:36:33;;;;;;;33.23;12.57;;;;;;;2.84;65.83;100440.13;6025465;29;20355;-75
2021/12/29 03:39:38;;;;;;;27.70;12.63;;;;;;;2.71;66.61;100443.63;6026627;29;20203;-75
2021/12/29 03:42:43;;;;;;;27.97;12.30;;;;;;;2.84;65.92;100435.56;6026830;29;20193;-75
2021/12/29 03:45:50;;;;;;;27.23;12.43;;;;;;;2.74;66.27;100445.09;6026484;29;20236;-75
2021/12/29 03:48:54;;;;;;;32.83;13.57;;;;;;;1.61;69.60;100447.19;6025144;29;20376;-75
2021/12/29 03:51:59;;;;;;;35.50;12.90;;;;;;;1.37;71.12;100450.28;6025405;29;20200;-75
2021/12/29 03:55:06;;;;;;;28.47;13.60;;;;;;;1.26;72.05;100453.50;6024877;29;20215;-75
2021/12/29 03:58:14;;;;;;;36.77;14.00;;;;;;;1.28;72.29;100441.47;6025523;29;20193;-75
2021/12/29 04:01:20;;;;;;;27.37;12.37;;;;;;;1.76;70.33;100445.25;6025878;29;20199;-75
2021/12/29 04:04:25;;;;;;;28.17;12.10;;;;;;;1.76;69.93;100437.13;6024876;29;20214;-75
2021/12/29 04:07:31;;;;;;;32.60;12.77;;;;;;;1.84;69.45;100431.56;6024802;29;20456;-76
2021/12/29 04:10:38;;;;;;;33.33;13.03;;;;;;;1.68;70.37;100448.94;6024791;29;20274;-75
2021/12/29 04:13:43;;;;;;;29.03;12.47;;;;;;;1.48;70.46;100447.06;6025855;29;20322;-75
2021/12/29 04:16:48;;;;;;;30.50;12.23;;;;;;;1.70;70.29;100448.72;6025542;29;20285;-75
2021/12/29 04:23:16;;;;;;;28.97;13.07;;;;;;;1.70;69.92;100451.44;6025835;29;20199;-75
2021/12/29 04:26:21;;;;;;;27.80;11.80;;;;;;;1.54;71.25;100457.13;6024841;29;20203;-75
2021/12/29 04:29:25;;;;;;;30.30;12.60;;;;;;;1.74;70.40;100452.72;6025582;29;20202;-75
2021/12/29 04:32:30;;;;;;;25.53;11.97;;;;;;;1.90;69.36;100452.50;6024539;29;20493;-75
2021/12/29 04:35:34;;;;;;;27.03;13.40;;;;;;;1.87;69.66;100447.47;6025516;29;20227;-75
2021/12/29 04:38:39;;;;;;;31.43;12.77;;;;;;;1.90;69.16;100452.50;6024463;29;20195;-75
2021/12/29 04:41:45;;;;;;;29.33;13.67;;;;;;;1.79;70.20;100461.09;6024187;29;20218;-75
2021/12/29 04:44:50;;;;;;;27.03;12.17;;;;;;;1.69;70.22;100456.03;6025473;29;20204;-75
2021/12/29 04:47:54;;;;;;;23.57;12.20;;;;;;;1.72;70.26;100457.50;6024210;29;20520;-75
2021/12/29 04:51:05;;;;;;;29.67;13.20;;;;;;;1.80;69.94;100462.78;6025320;29;20194;-75
2021/12/29 04:54:11;;;;;;;34.20;12.83;;;;;;;1.74;70.43;100468.97;6024087;29;20546;-75
2021/12/29 04:57:17;;;;;;;31.27;12.83;;;;;;;1.67;70.69;100466.19;6025995;29;20275;-75
2021/12/29 05:00:24;;;;;;;29.73;13.13;;;;;;;1.56;70.88;100463.19;6024029;29;20263;-75
2021/12/29 05:03:28;;;;;;;27.63;12.20;;;;;;;1.61;71.29;100463.44;6025055;29;20198;-75
2021/12/29 05:09:54;;;;;;;22.87;11.33;;;;;;;1.88;70.25;100464.56;6024739;29;20276;-75
2021/12/29 05:13:00;;;;;;;26.53;12.17;;;;;;;1.69;70.97;100471.44;6023852;29;20428;-75
2021/12/29 05:16:06;;;;;;;25.67;12.67;;;;;;;1.79;70.45;100471.09;6024823;29;20221;-75
2021/12/29 05:19:10;;;;;;;33.17;13.50;;;;;;;1.63;71.21;100478.44;6024942;29;20234;-75
2021/12/29 05:22:14;;;;;;;31.53;13.90;;;;;;;1.30;72.25;100476.44;6025173;29;20195;-75
2021/12/29 05:25:18;;;;;;;33.30;12.70;;;;;;;1.75;70.42;100470.66;6024417;29;20200;-75
2021/12/29 05:28:39;;;;;;;24.67;11.67;;;;;;;1.72;70.47;100476.47;6025130;29;20195;-75
2021/12/29 05:31:46;;;;;;;23.40;12.17;;;;;;;1.65;70.52;100476.38;6024699;29;20202;-75
2021/12/29 05:34:50;;;;;;;27.10;12.23;;;;;;;1.74;70.59;100471.69;6024595;29;20202;-75
2021/12/29 05:37:54;;;;;;;31.57;12.70;;;;;;;1.61;71.04;100476.97;6024960;29;20193;-75
2021/12/29 05:40:58;;;;;;;27.43;12.07;;;;;;;1.68;70.41;100475.16;6023654;29;20503;-75
2021/12/29 05:44:04;;;;;;;26.27;11.47;;;;;;;1.66;70.65;100479.94;6023726;29;20396;-75
2021/12/29 05:47:09;;;;;;;28.37;13.93;;;;;;;1.34;71.71;100480.44;6023639;29;20199;-75
2021/12/29 05:50:18;;;;;;;31.57;13.33;;;;;;;1.48;71.76;100479.53;6023876;29;20418;-75
2021/12/29 05:53:22;;;;;;;29.67;12.50;;;;;;;1.65;70.80;100475.53;6028675;29;20265;-76
2021/12/29 05:56:26;;;;;;;27.30;12.53;;;;;;;1.70;70.50;100473.94;6028944;29;20254;-75
2021/12/29 05:59:32;;;;;;;23.30;11.77;;;;;;;1.75;70.63;100481.50;6028044;29;20198;-75
2021/12/29 06:02:36;;;;;;;26.63;12.03;;;;;;;1.65;70.28;100486.38;6028970;29;20194;-74
2021/12/29 06:05:40;;;;;;;20.83;10.80;;;;;;;1.64;70.69;100479.28;6027578;29;20501;-75
2021/12/29 06:08:45;;;;;;;24.43;11.27;;;;;;;1.63;70.66;100483.03;6027651;29;20290;-75
2021/12/29 06:11:49;;;;;;;28.40;11.93;;;;;;;1.69;70.60;100490.38;6028367;29;20199;-75
2021/12/29 06:14:55;;;;;;;18.40;10.43;;;;;;;1.57;70.72;100486.53;6028930;29;20238;-75
2021/12/29 06:17:59;;;;;;;31.67;11.87;;;;;;;1.54;71.48;100495.03;6028502;29;20228;-74
2021/12/29 06:21:03;;;;;;;26.90;12.40;;;;;;;1.26;72.48;100491.38;6027206;29;20402;-75
2021/12/29 06:24:10;;;;;;;26.70;12.23;;;;;;;1.40;71.94;100504.00;6027127;29;20543;-75
2021/12/29 06:27:15;;;;;;;26.03;12.00;;;;;;;1.36;72.32;100497.31;6027114;29;20227;-75
2021/12/29 06:30:22;;;;;;;21.70;10.87;;;;;;;1.48;71.48;100493.91;6028351;29;20226;-74
2021/12/29 06:33:26;;;;;;;29.37;12.77;;;;;;;1.43;72.07;100487.41;6027025;29;20230;-75
2021/12/29 06:36:30;;;;;;;25.40;11.50;;;;;;;1.25;72.14;100495.94;6026913;29;20529;-75
2021/12/29 06:39:35;;;;;;;30.23;13.50;;;;;;;1.16;72.94;100501.66;6026781;29;20241;-75
2021/12/29 06:42:39;;;;;;;26.07;12.77;;;;;;;1.28;72.13;100505.53;6027934;29;20198;-75
2021/12/29 06:45:50;;;;;;;27.23;12.40;;;;;;;1.29;72.24;100505.34;6027892;29;20206;-75
2021/12/29 06:48:54;;;;;;;23.47;11.97;;;;;;;1.56;71.61;100509.19;6026946;29;20266;-75
2021/12/29 06:52:00;;;;;;;27.80;12.10;;;;;;;1.25;72.25;100511.34;6027759;29;20253;-75
2021/12/29 06:55:05;;;;;;;32.97;13.17;;;;;;;1.66;71.02;100509.69;6026380;29;20257;-75
2021/12/29 06:58:11;;;;;;;27.43;12.03;;;;;;;1.57;70.66;100502.75;6027567;29;20227;-75
2021/12/29 07:01:17;;;;;;;28.87;12.30;;;;;;;1.62;71.21;100514.66;6027276;29;20192;-77
2021/12/29 07:04:23;;;;;;;26.27;11.77;;;;;;;1.61;71.03;100517.56;6027365;29;20199;-75
2021/12/29 07:07:27;;;;;;;28.37;11.97;;;;;;;1.73;70.27;100513.31;6026141;29;20495;-75
2021/12/29 07:10:31;;;;;;;24.93;11.83;;;;;;;1.75;70.64;100519.38;6026536;29;20213;-75
2021/12/29 07:13:36;;;;;;;26.30;11.90;;;;;;;1.72;70.29;100524.34;6026794;29;20239;-75
2021/12/29 07:16:44;;;;;;;25.73;12.17;;;;;;;1.56;70.98;100523.56;6025723;29;20222;-75
2021/12/29 07:19:48;;;;;;;24.43;11.93;;;;;;;1.51;71.59;100523.31;6025693;29;20509;-76
2021/12/29 07:22:53;;;;;;;28.70;13.40;;;;;;;1.65;70.60;100535.94;6027056;29;20192;-76
2021/12/29 07:25:58;;;;;;;29.37;13.33;;;;;;;1.52;71.32;100541.19;6026748;29;20217;-76
2021/12/29 07:29:02;;;;;;;26.43;12.37;;;;;;;1.70;70.55;100532.63;6026766;29;20225;-77
2021/12/29 07:32:09;;;;;;;30.67;12.93;;;;;;;1.64;70.73;100541.53;6025733;29;20387;-76
2021/12/29 07:35:15;;;;;;;30.53;14.10;;;;;;;1.71;70.58;100539.72;6025653;29;20502;-76
2021/12/29 07:38:19;;;;;;;27.57;12.83;;;;;;;1.77;70.40;100549.81;6026518;29;20230;-76
2021/12/29 07:41:24;;;;;;;21.50;11.90;;;;;;;1.72;70.77;100536.00;6025365;29;20397;-76
2021/12/29 07:44:28;;;;;;;32.40;14.27;;;;;;;1.80;70.38;100533.19;6026609;29;20226;-76
2021/12/29 07:47:34;;;;;;;27.13;12.60;;;;;;;1.77;69.92;100538.97;6025230;29;20323;-76
2021/12/29 07:50:38;;;;;;;24.13;12.67;;;;;;;1.75;70.52;100538.34;6026458;29;20196;-76
2021/12/29 07:53:43;;;;;;;32.73;13.37;;;;;;;1.70;70.63;100549.72;6026136;29;20201;-76
2021/12/29 07:56:47;;;;;;;33.30;14.27;;;;;;;1.82;70.63;100552.78;6025114;29;20216;-76
2021/12/29 07:59:52;;;;;;;31.17;14.43;;;;;;;1.62;71.48;100551.72;6025194;29;20199;-76
2021/12/29 08:02:58;;;;;;;33.07;15.33;;;;;;;1.59;71.59;100546.69;6024926;29;20227;-75
2021/12/29 08:06:02;;;;;;;31.63;14.67;;;;;;;1.78;70.80;100550.66;6024694;29;20195;-76
2021/12/29 08:09:09;;;;;;;33.90;13.77;;;;;;;1.73;71.14;100558.50;6026193;29;20271;-76
2021/12/29 08:12:13;;;;;;;28.40;13.13;;;;;;;1.78;70.60;100562.28;6026041;29;20192;-76
2021/12/29 08:15:18;;;;;;;35.03;15.07;;;;;;;1.84;70.20;100555.28;6023744;29;20553;-76
2021/12/29 08:18:28;;;;;;;28.80;13.33;;;;;;;1.93;69.91;100554.97;6025862;29;20222;-76
2021/12/29 08:21:32;;;;;;;29.13;13.93;;;;;;;1.68;70.98;100556.34;6025239;29;20231;-75
2021/12/29 08:24:37;;;;;;;29.80;12.77;;;;;;;1.81;70.40;100556.50;6025979;29;20192;-75
2021/12/29 08:27:41;;;;;;;29.87;13.90;;;;;;;1.77;71.05;100560.63;6024907;29;20503;-76
2021/12/29 08:30:45;;;;;;;30.07;13.57;;;;;;;1.81;72.37;100556.50;6025453;29;20205;-76
2021/12/29 08:33:51;;;;;;;33.63;14.10;;;;;;;1.86;71.81;100551.38;6024572;29;20194;-76
2021/12/29 08:36:56;;;;;;;32.03;14.33;;;;;;;1.32;73.32;100555.53;6024344;29;20545;-76
2021/12/29 08:40:00;;;;;;;41.00;16.10;;;;;;;1.36;74.39;100546.00;6024403;29;20193;-75
2021/12/29 08:43:05;;;;;;;41.67;16.43;;;;;;;1.45;73.87;100558.38;6025373;29;20193;-76
2021/12/29 08:46:09;;;;;;;46.10;16.43;;;;;;;1.50;73.23;100553.25;6024318;29;20362;-76
2021/12/29 08:49:16;;;;;;;37.97;15.97;;;;;;;1.87;72.39;100555.75;6024453;29;20231;-76
2021/12/29 08:52:21;;;;;;;46.40;16.33;;;;;;;1.86;71.73;100548.66;6025308;29;20249;-76
2021/12/29 08:55:26;;;;;;;38.03;14.50;;;;;;;1.94;70.91;100567.50;6025528;29;20202;-76
2021/12/29 08:58:31;;;;;;;46.47;15.47;;;;;;;1.96;71.20;100565.41;6024103;29;20456;-75
2021/12/29 09:01:38;;;;;;;49.43;16.63;;;;;;;2.02;71.04;100564.66;6024162;29;20478;-76
2021/12/29 09:04:44;;;;;;;38.10;15.73;;;;;;;1.87;70.94;100561.19;6025595;29;20328;-75
2021/12/29 09:07:48;;;;;;;49.30;17.03;;;;;;;1.79;71.74;100563.97;6024934;29;20239;-76
2021/12/29 09:10:53;;;;;;;48.83;17.53;;;;;;;1.66;72.27;100569.25;6025078;29;20249;-76
2021/12/29 09:13:59;;;;;;;56.83;17.50;;;;;;;1.75;72.35;100562.69;6024129;29;20417;-76
2021/12/29 09:17:04;;;;;;;53.40;17.03;;;;;;;1.45;73.52;100561.09;6024845;29;20194;-75
2021/12/29 09:20:16;;;;;;;54.07;18.30;;;;;;;1.63;72.52;100550.69;6024941;29;20219;-76
2021/12/29 09:23:20;;;;;;;59.43;18.13;;;;;;;1.91;72.04;100557.03;6024652;29;20272;-75
2021/12/29 09:26:25;;;;;;;48.80;16.40;;;;;;;1.91;71.66;100557.03;6027744;29;20215;-76
2021/12/29 09:29:32;;;;;;;66.10;19.80;;;;;;;2.06;71.30;100563.22;6029460;29;20196;-75
2021/12/29 09:32:37;;;;;;;48.77;16.67;;;;;;;1.87;71.86;100555.75;6029140;29;20192;-75
2021/12/29 09:35:43;;;;;;;60.80;18.40;;;;;;;1.91;71.28;100559.75;6028176;29;20391;-76
2021/12/29 09:38:47;;;;;;;54.07;17.87;;;;;;;1.90;71.79;100555.38;6029012;29;20220;-75
2021/12/29 09:41:52;;;;;;;51.00;17.53;;;;;;;1.50;72.93;100564.06;6028950;29;20199;-76
2021/12/29 09:44:56;;;;;;;53.73;17.20;;;;;;;1.92;71.53;100553.31;6028827;29;20224;-76
2021/12/29 09:48:01;;;;;;;55.07;16.60;;;;;;;1.85;71.91;100568.66;6029120;29;20245;-76
2021/12/29 09:51:11;;;;;;;60.70;18.97;;;;;;;2.07;70.61;100562.19;6027950;29;20479;-76
2021/12/29 09:54:16;;;;;;;58.57;17.37;;;;;;;2.07;70.70;100564.91;6028677;29;20198;-76
2021/12/29 09:57:20;;;;;;;53.27;17.37;;;;;;;2.12;70.63;100562.47;6028270;29;20259;-76
2021/12/29 10:00:28;;;;;;;53.47;17.07;;;;;;;2.15;70.48;100570.19;6027366;29;20360;-76
2021/12/29 10:03:34;;;;;;;48.23;17.23;;;;;;;2.20;70.32;100565.03;6027275;29;20494;-75
2021/12/29 10:06:40;;;;;;;48.43;17.67;;;;;;;2.08;70.58;100569.31;6027838;29;20195;-75
2021/12/29 10:09:44;;;;;;;51.17;17.50;;;;;;;2.29;69.72;100561.13;6028841;29;20291;-75
2021/12/29 10:12:49;;;;;;;56.83;18.77;;;;;;;2.13;70.74;100571.44;6027984;29;20193;-76
2021/12/29 10:16:00;;;;;;;60.23;18.90;;;;;;;2.29;69.82;100571.97;6027261;29;20385;-76
2021/12/29 10:19:06;;;;;;;57.37;17.70;;;;;;;2.21;69.84;100569.41;6028081;29;20228;-75
2021/12/29 10:22:22;;;;;;;53.43;18.63;;;;;;;2.20;70.22;100562.31;6028641;29;20192;-76
2021/12/29 10:25:26;;;;;;;54.10;16.73;;;;;;;2.08;70.64;100568.47;6027005;29;20517;-75
2021/12/29 10:28:32;;;;;;;51.63;17.70;;;;;;;2.17;69.97;100578.97;6028228;29;20195;-76
2021/12/29 10:31:40;;;;;;;56.77;17.23;;;;;;;2.40;69.37;100580.59;6027802;29;20200;-77
2021/12/29 10:34:51;;;;;;;56.43;17.03;;;;;;;2.28;69.92;100580.31;6027958;29;20195;-76
2021/12/29 10:38:17;;;;;;;50.43;17.03;;;;;;;2.15;69.95;100580.19;6026058;29;20403;-76
2021/12/29 10:41:22;;;;;;;50.60;16.87;;;;;;;2.19;70.30;100579.59;6027858;29;20195;-78
2021/12/29 10:44:29;;;;;;;52.27;17.30;;;;;;;1.99;70.71;100578.56;6027936;29;20227;-75
2021/12/29 10:47:37;;;;;;;49.50;17.73;;;;;;;2.30;69.93;100579.06;6027701;29;20250;-76
2021/12/29 10:50:41;;;;;;;42.53;16.47;;;;;;;2.35;69.50;100583.06;6027502;29;20205;-76
2021/12/29 10:53:47;;;;;;;45.20;16.90;;;;;;;2.29;69.65;100582.81;6026692;29;20227;-76
2021/12/29 10:57:00;;;;;;;52.80;16.70;;;;;;;2.32;69.37;100582.44;6026283;29;20479;-75
2021/12/29 11:00:11;;;;;;;53.30;16.80;;;;;;;2.01;70.52;100584.63;6026503;29;20226;-76
2021/12/29 11:03:23;;;;;;;52.33;17.60;;;;;;;2.14;70.27;100590.19;6027293;29;20204;-76
2021/12/29 11:06:27;;;;;;;45.23;17.33;;;;;;;1.99;70.14;100592.13;6026537;29;20301;-75
2021/12/29 11:09:35;;;;;;;53.13;17.77;;;;;;;1.76;71.75;100586.00;6026571;29;20212;-76
2021/12/29 11:12:45;;;;;;;55.77;18.47;;;;;;;2.07;70.74;100589.28;6026103;29;20247;-75
2021/12/29 11:15:52;;;;;;;52.07;17.50;;;;;;;2.27;69.69;100595.72;6003548;29;20514;-76
2021/12/29 11:18:57;;;;;;;49.30;17.03;;;;;;;2.07;70.32;100594.69;6004126;29;20221;-76
2021/12/29 11:22:11;;;;;;;49.93;17.33;;;;;;;2.17;70.19;100600.63;6003170;29;20524;-76
2021/12/29 11:25:27;;;;;;;45.13;17.47;;;;;;;2.04;70.91;100614.03;6003667;29;20196;-76
2021/12/29 11:28:32;;;;;;;50.33;16.40;;;;;;;1.69;72.52;100601.34;6003032;29;20205;-76
2021/12/29 11:31:38;;;;;;;47.50;17.53;;;;;;;1.51;72.82;100604.47;6004122;29;20258;-75
2021/12/29 11:34:42;;;;;;;51.97;16.90;;;;;;;1.57;72.92;100609.09;6003250;29;20431;-76
2021/12/29 11:37:50;;;;;;;39.80;15.57;;;;;;;1.99;71.34;100612.94;6004186;29;20193;-75
2021/12/29 11:40:59;;;;;;;49.43;16.60;;;;;;;1.87;71.99;100618.03;6002690;29;20514;-75
2021/12/29 11:44:05;;;;;;;46.60;16.63;;;;;;;1.82;72.52;100611.47;6003949;29;20344;-75
2021/12/29 11:47:11;;;;;;;48.07;17.07;;;;;;;1.57;73.81;100608.28;6003539;29;20195;-75
2021/12/29 11:50:21;;;;;;;51.23;17.50;;;;;;;1.71;72.92;100610.13;6002252;29;20246;-75
2021/12/29 11:53:32;;;;;;;44.60;17.30;;;;;;;2.07;72.03;100605.53;6002705;29;20192;-75
2021/12/29 11:56:42;;;;;;;53.03;16.30;;;;;;;2.10;71.28;100615.16;6003086;29;20197;-75
2021/12/29 11:59:47;;;;;;;53.27;17.87;;;;;;;2.00;71.80;100614.63;6002499;29;20220;-75
2021/12/29 12:02:54;;;;;;;59.23;18.00;;;;;;;2.30;70.42;100621.59;6003441;29;20194;-75
2021/12/29 12:05:58;;;;;;;48.43;16.63;;;;;;;2.11;71.47;100614.13;6002350;29;20426;-76
2021/12/29 12:09:13;;;;;;;47.00;16.93;;;;;;;2.20;71.08;100616.50;6003170;29;20246;-75
2021/12/29 12:12:20;;;;;;;54.93;16.90;;;;;;;1.95;71.13;100614.38;6003140;29;20192;-76
2021/12/29 12:15:36;;;;;;;46.63;17.00;;;;;;;2.05;71.27;100613.03;6023098;29;20253;-76
2021/12/29 12:18:46;;;;;;;43.47;15.77;;;;;;;2.03;71.60;100615.09;6025952;29;20239;-76
2021/12/29 12:22:02;;;;;;;50.30;17.67;;;;;;;2.08;70.87;100612.66;6024885;29;20256;-76
2021/12/29 12:25:08;;;;;;;46.87;16.17;;;;;;;2.03;71.11;100615.09;6024612;29;20478;-76
2021/12/29 12:28:21;;;;;;;55.23;18.30;;;;;;;1.81;72.08;100616.06;6024917;29;20193;-76
2021/12/29 12:31:27;;;;;;;49.27;16.17;;;;;;;2.03;71.41;100609.69;6025526;29;20283;-76
2021/12/29 12:34:33;;;;;;;48.83;17.03;;;;;;;2.07;71.16;100605.53;6025829;29;20196;-76
2021/12/29 12:37:39;;;;;;;58.40;17.40;;;;;;;1.89;71.82;100613.25;6025721;29;20194;-75
2021/12/29 12:40:45;;;;;;;53.33;17.40;;;;;;;1.79;72.44;100611.88;6025103;29;20263;-76
2021/12/29 12:43:52;;;;;;;43.83;15.87;;;;;;;1.99;71.86;100611.06;6025373;29;20234;-76
2021/12/29 12:47:09;;;;;;;47.60;16.23;;;;;;;1.85;71.73;100606.56;6025436;29;20195;-76
2021/12/29 12:50:24;;;;;;;48.90;16.73;;;;;;;1.91;72.12;100605.78;6024091;29;20403;-75
2021/12/29 12:53:31;;;;;;;46.07;17.43;;;;;;;2.07;71.15;100610.94;6024848;29;20192;-76
2021/12/29 12:56:46;;;;;;;44.73;17.50;;;;;;;1.73;72.52;100613.47;6024855;29;20200;-76
2021/12/29 12:59:56;;;;;;;42.83;17.07;;;;;;;1.92;71.39;100618.31;6027179;29;20247;-76
2021/12/29 13:03:04;;;;;;;51.57;17.97;;;;;;;1.74;71.97;100620.56;6032588;29;20256;-76
2021/12/29 13:06:15;;;;;;;56.93;18.77;;;;;;;1.50;73.17;100619.03;6032501;29;20192;-76
2021/12/29 13:09:20;;;;;;;53.73;17.93;;;;;;;1.62;72.74;100611.28;6032873;29;20282;-75
2021/12/29 13:12:28;;;;;;;50.87;18.63;;;;;;;1.76;72.44;100613.09;6032829;29;20230;-76
2021/12/29 13:15:34;;;;;;;49.20;17.37;;;;;;;1.97;71.33;100615.84;6031711;29;20246;-75
2021/12/29 13:18:39;;;;;;;44.23;16.60;;;;;;;2.11;71.01;100616.84;6032368;29;20211;-75
2021/12/29 13:21:44;;;;;;;52.43;17.37;;;;;;;1.94;71.03;100621.66;6032593;29;20294;-75
2021/12/29 13:24:49;;;;;;;46.90;17.57;;;;;;;1.92;71.21;100612.88;6031391;29;20483;-75
2021/12/29 13:28:02;;;;;;;52.03;16.97;;;;;;;1.69;72.28;100620.28;6031524;29;20427;-75
2021/12/29 13:31:10;;;;;;;48.37;16.73;;;;;;;1.58;72.67;100627.03;6031974;29;20195;-75
2021/12/29 13:34:15;;;;;;;40.07;15.93;;;;;;;1.80;71.83;100619.81;6032209;29;20210;-75
2021/12/29 13:37:20;;;;;;;52.53;18.20;;;;;;;1.68;72.13;100621.31;6032541;29;20212;-75
2021/12/29 13:40:29;;;;;;;54.57;18.27;;;;;;;1.79;71.98;100626.25;6032424;29;20223;-75
2021/12/29 13:43:36;;;;;;;45.97;17.97;;;;;;;1.77;71.91;100620.19;6032198;29;20195;-75
2021/12/29 13:46:44;;;;;;;48.47;17.47;;;;;;;1.65;72.67;100627.09;6032034;29;20261;-75
2021/12/29 13:49:49;;;;;;;46.07;17.13;;;;;;;1.77;71.86;100622.88;6030988;29;20413;-75
2021/12/29 13:53:00;;;;;;;49.60;16.90;;;;;;;1.84;71.27;100622.94;6032041;29;20285;-75
2021/12/29 13:56:07;;;;;;;52.53;17.53;;;;;;;1.84;71.22;100626.50;6031961;29;20199;-75
2021/12/29 13:59:15;;;;;;;45.87;16.57;;;;;;;1.94;71.16;100627.06;6031479;29;20479;-75
2021/12/29 14:02:21;;;;;;;52.13;22.33;;;;;;;1.63;71.84;100640.00;6030944;29;20583;-75
2021/12/29 14:05:40;;;;;;;47.47;16.37;;;;;;;1.93;71.09;100635.38;6030957;29;20267;-75
2021/12/29 14:08:47;;;;;;;41.97;15.37;;;;;;;1.75;71.94;100638.50;6031961;29;20211;-74
2021/12/29 14:11:51;;;;;;;47.23;18.47;;;;;;;1.80;71.33;100635.22;6028149;29;20425;-74
2021/12/29 14:15:02;;;;;;;45.57;17.93;;;;;;;1.94;71.67;100632.47;6028210;29;20242;-74
2021/12/29 14:18:20;;;;;;;42.40;17.90;;;;;;;1.84;71.06;100634.63;6028455;29;20244;-76
2021/12/29 14:21:28;;;;;;;47.17;18.43;;;;;;;1.93;71.41;100638.09;6028026;29;20215;-75
2021/12/29 14:24:38;;;;;;;46.73;16.97;;;;;;;1.88;71.20;100633.22;6028080;29;20264;-75